createdAt,value
2017-08-20T00:00:29.326Z,994.09
2017-08-20T00:01:27.325Z,994.07
2017-08-20T00:02:24.613Z,994.08
2017-08-20T00:03:21.882Z,994.04
2017-08-20T00:04:21.211Z,994.11
2017-08-20T00:05:18.489Z,994.09
2017-08-20T00:06:15.753Z,994.13
2017-08-20T00:07:13.066Z,994.04
2017-08-20T00:08:10.359Z,994.05
2017-08-20T00:09:07.630Z,994.10
2017-08-20T00:10:05.449Z,994.06
2017-08-20T00:11:03.685Z,994.07
2017-08-20T00:12:00.966Z,994.07
2017-08-20T00:12:58.261Z,994.12
2017-08-20T00:13:55.550Z,994.08
2017-08-20T00:14:52.830Z,994.20
2017-08-20T00:15:50.117Z,994.08
2017-08-20T00:16:47.461Z,994.14
2017-08-20T00:17:44.753Z,994.12
2017-08-20T00:18:42.026Z,994.11
2017-08-20T00:19:39.290Z,994.10
2017-08-20T00:20:36.688Z,994.09
2017-08-20T00:21:34.029Z,994.15
2017-08-20T00:22:31.318Z,994.11
2017-08-20T00:23:28.592Z,994.10
2017-08-20T00:24:25.885Z,994.07
2017-08-20T00:25:23.145Z,994.19
2017-08-20T00:26:20.421Z,994.17
2017-08-20T00:27:17.730Z,994.18
2017-08-20T00:28:15.080Z,994.17
2017-08-20T00:29:12.350Z,994.16
2017-08-20T00:30:09.638Z,994.18
2017-08-20T00:31:06.897Z,994.11
2017-08-20T00:32:04.382Z,994.18
2017-08-20T00:33:01.844Z,994.16
2017-08-20T00:33:59.170Z,994.17
2017-08-20T00:34:56.501Z,994.24
2017-08-20T00:35:54.143Z,994.27
2017-08-20T00:36:51.547Z,994.22
2017-08-20T00:37:48.841Z,994.23
2017-08-20T00:38:46.246Z,994.17
2017-08-20T00:39:43.699Z,994.19
2017-08-20T00:40:41.090Z,994.29
2017-08-20T00:41:38.568Z,994.19
2017-08-20T00:42:36.047Z,994.17
2017-08-20T00:43:33.529Z,994.17
2017-08-20T00:44:30.996Z,994.22
2017-08-20T00:45:28.262Z,994.15
2017-08-20T00:46:25.526Z,994.19
2017-08-20T00:47:23.013Z,994.23
2017-08-20T00:48:20.441Z,994.21
2017-08-20T00:49:17.864Z,994.21
2017-08-20T00:50:15.321Z,994.23
2017-08-20T00:51:12.593Z,994.18
2017-08-20T00:52:09.891Z,994.16
2017-08-20T00:53:07.395Z,994.16
2017-08-20T00:54:04.796Z,994.16
2017-08-20T00:55:02.267Z,994.19
2017-08-20T00:55:59.622Z,994.16
2017-08-20T00:56:57.099Z,994.20
2017-08-20T00:57:54.361Z,994.11
2017-08-20T00:58:51.654Z,994.17
2017-08-20T00:59:48.990Z,994.17
2017-08-20T01:00:46.494Z,994.19
2017-08-20T01:01:43.894Z,994.17
2017-08-20T01:02:41.549Z,994.19
2017-08-20T01:03:38.941Z,994.25
2017-08-20T01:04:36.557Z,994.21
2017-08-20T01:05:33.845Z,994.27
2017-08-20T01:06:31.117Z,994.24
2017-08-20T01:07:28.368Z,994.20
2017-08-20T01:08:25.646Z,994.14
2017-08-20T01:09:22.917Z,994.12
2017-08-20T01:10:20.204Z,994.23
2017-08-20T01:11:17.462Z,994.12
2017-08-20T01:12:14.742Z,994.21
2017-08-20T01:13:12.012Z,994.21
2017-08-20T01:14:09.340Z,994.18
2017-08-20T01:15:06.625Z,994.17
2017-08-20T01:16:03.921Z,994.21
2017-08-20T01:17:01.212Z,994.24
2017-08-20T01:17:58.489Z,994.19
2017-08-20T01:18:55.799Z,994.26
2017-08-20T01:19:53.070Z,994.23
2017-08-20T01:20:50.342Z,994.24
2017-08-20T01:21:47.633Z,994.20
2017-08-20T01:22:44.922Z,994.19
2017-08-20T01:23:42.210Z,994.18
2017-08-20T01:24:39.483Z,994.25
2017-08-20T01:25:36.776Z,994.26
2017-08-20T01:26:34.033Z,994.21
2017-08-20T01:27:31.328Z,994.19
2017-08-20T01:28:28.601Z,994.16
2017-08-20T01:29:25.896Z,994.23
2017-08-20T01:30:23.145Z,994.18
2017-08-20T01:31:20.442Z,994.23
2017-08-20T01:32:17.720Z,994.20
2017-08-20T01:33:15.018Z,994.21
2017-08-20T01:34:12.288Z,994.20
2017-08-20T01:35:09.558Z,994.22
2017-08-20T01:36:07.511Z,994.25
2017-08-20T01:37:04.788Z,994.31
2017-08-20T01:38:02.052Z,994.33
2017-08-20T01:38:59.337Z,994.32
2017-08-20T01:39:56.655Z,994.30
2017-08-20T01:40:53.933Z,994.33
2017-08-20T01:41:51.198Z,994.35
2017-08-20T01:42:48.508Z,994.37
2017-08-20T01:43:45.762Z,994.35
2017-08-20T01:44:43.050Z,994.31
2017-08-20T01:45:40.305Z,994.27
2017-08-20T01:46:37.580Z,994.36
2017-08-20T01:47:34.834Z,994.29
2017-08-20T01:48:32.098Z,994.28
2017-08-20T01:49:29.350Z,994.30
2017-08-20T01:50:26.641Z,994.24
2017-08-20T01:51:23.890Z,994.32
2017-08-20T01:52:21.159Z,994.34
2017-08-20T01:53:18.448Z,994.36
2017-08-20T01:54:15.706Z,994.31
2017-08-20T01:55:13.010Z,994.44
2017-08-20T01:56:10.300Z,994.37
2017-08-20T01:57:07.557Z,994.42
2017-08-20T01:58:04.830Z,994.38
2017-08-20T01:59:02.098Z,994.43
2017-08-20T01:59:59.406Z,994.46
2017-08-20T02:00:56.671Z,994.38
2017-08-20T02:01:53.940Z,994.32
2017-08-20T02:02:51.209Z,994.44
2017-08-20T02:03:48.482Z,994.42
2017-08-20T02:04:45.752Z,994.30
2017-08-20T02:05:43.068Z,994.37
2017-08-20T02:06:40.323Z,994.35
2017-08-20T02:07:37.613Z,994.33
2017-08-20T02:08:34.873Z,994.33
2017-08-20T02:09:32.147Z,994.27
2017-08-20T02:10:29.442Z,994.32
2017-08-20T02:11:26.722Z,994.34
2017-08-20T02:12:23.973Z,994.39
2017-08-20T02:13:21.256Z,994.37
2017-08-20T02:14:18.521Z,994.34
2017-08-20T02:15:15.826Z,994.34
2017-08-20T02:16:13.109Z,994.32
2017-08-20T02:17:10.389Z,994.27
2017-08-20T02:18:07.655Z,994.34
2017-08-20T02:19:04.937Z,994.32
2017-08-20T02:20:02.204Z,994.26
2017-08-20T02:20:59.501Z,994.36
2017-08-20T02:21:56.779Z,994.34
2017-08-20T02:22:54.070Z,994.39
2017-08-20T02:23:51.330Z,994.39
2017-08-20T02:24:48.598Z,994.48
2017-08-20T02:25:46.281Z,994.43
2017-08-20T02:26:43.600Z,994.41
2017-08-20T02:27:40.889Z,994.33
2017-08-20T02:28:38.161Z,994.36
2017-08-20T02:29:35.405Z,994.41
2017-08-20T02:30:32.673Z,994.44
2017-08-20T02:31:29.989Z,994.41
2017-08-20T02:32:27.282Z,994.40
2017-08-20T02:33:24.547Z,994.44
2017-08-20T02:34:21.828Z,994.38
2017-08-20T02:35:19.102Z,994.37
2017-08-20T02:36:16.406Z,994.34
2017-08-20T02:37:13.692Z,994.30
2017-08-20T02:38:10.990Z,994.37
2017-08-20T02:39:08.249Z,994.40
2017-08-20T02:40:05.530Z,994.48
2017-08-20T02:41:02.860Z,994.42
2017-08-20T02:42:00.165Z,994.42
2017-08-20T02:42:57.429Z,994.49
2017-08-20T02:43:54.715Z,994.45
2017-08-20T02:44:52.074Z,994.41
2017-08-20T02:45:49.367Z,994.47
2017-08-20T02:46:46.677Z,994.45
2017-08-20T02:47:43.978Z,994.41
2017-08-20T02:48:41.266Z,994.38
2017-08-20T02:49:38.590Z,994.38
2017-08-20T02:50:35.874Z,994.40
2017-08-20T02:51:33.193Z,994.42
2017-08-20T02:52:30.487Z,994.37
2017-08-20T02:53:27.779Z,994.41
2017-08-20T02:54:25.038Z,994.44
2017-08-20T02:55:22.325Z,994.42
2017-08-20T02:56:19.610Z,994.34
2017-08-20T02:57:16.909Z,994.40
2017-08-20T02:58:14.193Z,994.40
2017-08-20T02:59:11.477Z,994.39
2017-08-20T03:00:08.738Z,994.32
2017-08-20T03:01:06.010Z,994.40
2017-08-20T03:02:03.311Z,994.47
2017-08-20T03:03:00.613Z,994.35
2017-08-20T03:03:57.931Z,994.47
2017-08-20T03:04:55.225Z,994.51
2017-08-20T03:05:52.490Z,994.49
2017-08-20T03:06:49.790Z,994.51
2017-08-20T03:07:47.071Z,994.54
2017-08-20T03:08:44.354Z,994.52
2017-08-20T03:09:41.607Z,994.52
2017-08-20T03:10:39.092Z,994.51
2017-08-20T03:11:36.345Z,994.55
2017-08-20T03:12:33.638Z,994.62
2017-08-20T03:13:30.905Z,994.54
2017-08-20T03:14:28.169Z,994.65
2017-08-20T03:15:25.433Z,994.60
2017-08-20T03:16:22.698Z,994.59
2017-08-20T03:17:19.982Z,994.62
2017-08-20T03:18:17.271Z,994.64
2017-08-20T03:19:14.533Z,994.62
2017-08-20T03:20:11.809Z,994.62
2017-08-20T03:21:09.118Z,994.63
2017-08-20T03:22:06.428Z,994.62
2017-08-20T03:23:03.707Z,994.66
2017-08-20T03:24:00.989Z,994.66
2017-08-20T03:24:58.248Z,994.64
2017-08-20T03:25:55.515Z,994.67
2017-08-20T03:26:52.777Z,994.65
2017-08-20T03:27:50.126Z,994.66
2017-08-20T03:28:47.411Z,994.69
2017-08-20T03:29:44.730Z,994.70
2017-08-20T03:30:42.070Z,994.66
2017-08-20T03:31:39.394Z,994.61
2017-08-20T03:32:36.693Z,994.75
2017-08-20T03:33:33.997Z,994.81
2017-08-20T03:34:31.295Z,994.74
2017-08-20T03:35:28.651Z,994.82
2017-08-20T03:36:25.967Z,994.72
2017-08-20T03:37:23.409Z,994.78
2017-08-20T03:38:20.881Z,994.84
2017-08-20T03:39:18.220Z,994.86
2017-08-20T03:40:15.631Z,994.77
2017-08-20T03:41:12.955Z,994.80
2017-08-20T03:42:10.251Z,994.84
2017-08-20T03:43:07.550Z,994.87
2017-08-20T03:44:04.855Z,994.86
2017-08-20T03:45:02.183Z,994.78
2017-08-20T03:45:59.468Z,994.83
2017-08-20T03:46:56.785Z,994.80
2017-08-20T03:47:54.237Z,994.83
2017-08-20T03:48:51.605Z,994.77
2017-08-20T03:49:48.925Z,994.71
2017-08-20T03:50:46.237Z,994.74
2017-08-20T03:51:43.539Z,994.75
2017-08-20T03:52:40.840Z,994.73
2017-08-20T03:53:38.121Z,994.78
2017-08-20T03:54:35.465Z,994.67
2017-08-20T03:55:32.769Z,994.69
2017-08-20T03:56:30.056Z,994.66
2017-08-20T03:57:27.345Z,994.73
2017-08-20T03:58:24.653Z,994.75
2017-08-20T03:59:21.953Z,994.67
2017-08-20T04:00:19.291Z,994.78
2017-08-20T04:01:16.589Z,994.76
2017-08-20T04:02:13.896Z,994.77
2017-08-20T04:03:11.194Z,994.76
2017-08-20T04:04:08.524Z,994.73
2017-08-20T04:05:05.873Z,994.75
2017-08-20T04:06:03.161Z,994.72
2017-08-20T04:07:00.468Z,994.74
2017-08-20T04:07:57.757Z,994.75
2017-08-20T04:08:55.050Z,994.71
2017-08-20T04:09:52.352Z,994.79
2017-08-20T04:10:49.709Z,994.73
2017-08-20T04:11:47.096Z,994.79
2017-08-20T04:12:44.412Z,994.72
2017-08-20T04:13:41.727Z,994.80
2017-08-20T04:14:39.021Z,994.73
2017-08-20T04:15:36.336Z,994.73
2017-08-20T04:16:33.613Z,994.78
2017-08-20T04:17:30.884Z,994.73
2017-08-20T04:18:28.231Z,994.67
2017-08-20T04:19:25.497Z,994.72
2017-08-20T04:20:22.761Z,994.73
2017-08-20T04:21:20.050Z,994.76
2017-08-20T04:22:17.334Z,994.74
2017-08-20T04:23:14.615Z,994.68
2017-08-20T04:24:11.966Z,994.81
2017-08-20T04:25:09.253Z,994.74
2017-08-20T04:26:06.576Z,994.76
2017-08-20T04:27:03.897Z,994.70
2017-08-20T04:28:01.199Z,994.75
2017-08-20T04:28:58.509Z,994.81
2017-08-20T04:29:55.785Z,994.79
2017-08-20T04:30:53.065Z,994.75
2017-08-20T04:31:50.337Z,994.76
2017-08-20T04:32:47.617Z,994.84
2017-08-20T04:33:44.897Z,994.86
2017-08-20T04:34:42.195Z,994.83
2017-08-20T04:35:39.465Z,994.80
2017-08-20T04:36:36.747Z,994.78
2017-08-20T04:37:34.031Z,994.78
2017-08-20T04:38:31.306Z,994.83
2017-08-20T04:39:28.576Z,994.68
2017-08-20T04:40:25.897Z,994.76
2017-08-20T04:41:23.169Z,994.74
2017-08-20T04:42:20.458Z,994.77
2017-08-20T04:43:17.706Z,994.76
2017-08-20T04:44:15.014Z,994.76
2017-08-20T04:45:12.335Z,994.76
2017-08-20T04:46:09.624Z,994.77
2017-08-20T04:47:07.084Z,994.77
2017-08-20T04:48:04.421Z,994.83
2017-08-20T04:49:01.761Z,994.88
2017-08-20T04:49:59.048Z,994.79
2017-08-20T04:50:56.507Z,994.85
2017-08-20T04:51:53.798Z,994.88
2017-08-20T04:52:51.084Z,994.94
2017-08-20T04:53:48.374Z,994.87
2017-08-20T04:54:45.666Z,994.93
2017-08-20T04:55:42.945Z,994.87
2017-08-20T04:56:40.209Z,994.95
2017-08-20T04:57:37.559Z,994.94
2017-08-20T04:58:34.826Z,994.96
2017-08-20T04:59:32.161Z,995.00
2017-08-20T05:00:29.466Z,994.94
2017-08-20T05:01:26.770Z,994.94
2017-08-20T05:02:24.149Z,994.94
2017-08-20T05:03:21.459Z,994.96
2017-08-20T05:04:18.762Z,994.93
2017-08-20T05:05:16.141Z,994.92
2017-08-20T05:06:13.417Z,994.90
2017-08-20T05:07:10.706Z,994.98
2017-08-20T05:08:08.206Z,994.95
2017-08-20T05:09:05.787Z,995.01
2017-08-20T05:10:03.374Z,995.02
2017-08-20T05:11:00.697Z,995.10
2017-08-20T05:11:57.955Z,995.12
2017-08-20T05:12:55.238Z,995.12
2017-08-20T05:13:52.569Z,995.15
2017-08-20T05:14:49.923Z,995.11
2017-08-20T05:15:47.226Z,995.18
2017-08-20T05:16:44.543Z,995.15
2017-08-20T05:17:41.815Z,995.19
2017-08-20T05:18:39.110Z,995.20
2017-08-20T05:19:36.384Z,995.15
2017-08-20T05:20:33.694Z,995.23
2017-08-20T05:21:31.036Z,995.19
2017-08-20T05:22:28.350Z,995.21
2017-08-20T05:23:25.617Z,995.18
2017-08-20T05:24:22.924Z,995.23
2017-08-20T05:25:20.248Z,995.21
2017-08-20T05:26:17.543Z,995.33
2017-08-20T05:27:14.853Z,995.31
2017-08-20T05:28:12.159Z,995.32
2017-08-20T05:29:09.416Z,995.26
2017-08-20T05:30:06.745Z,995.26
2017-08-20T05:31:04.026Z,995.28
2017-08-20T05:32:01.334Z,995.29
2017-08-20T05:32:58.777Z,995.34
2017-08-20T05:33:56.149Z,995.31
2017-08-20T05:34:53.444Z,995.35
2017-08-20T05:35:50.754Z,995.33
2017-08-20T05:36:48.099Z,995.33
2017-08-20T05:37:45.412Z,995.33
2017-08-20T05:38:42.697Z,995.37
2017-08-20T05:39:40.038Z,995.39
2017-08-20T05:40:37.362Z,995.32
2017-08-20T05:41:34.683Z,995.36
2017-08-20T05:42:31.990Z,995.31
2017-08-20T05:43:29.330Z,995.40
2017-08-20T05:44:26.606Z,995.29
2017-08-20T05:45:23.905Z,995.31
2017-08-20T05:46:21.221Z,995.28
2017-08-20T05:47:18.542Z,995.28
2017-08-20T05:48:15.893Z,995.36
2017-08-20T05:49:13.225Z,995.30
2017-08-20T05:50:10.534Z,995.32
2017-08-20T05:51:07.840Z,995.31
2017-08-20T05:52:05.122Z,995.36
2017-08-20T05:53:02.472Z,995.44
2017-08-20T05:53:59.773Z,995.43
2017-08-20T05:54:57.074Z,995.43
2017-08-20T05:55:54.389Z,995.45
2017-08-20T05:56:51.679Z,995.37
2017-08-20T05:57:48.982Z,995.46
2017-08-20T05:58:46.363Z,995.43
2017-08-20T05:59:43.629Z,995.46
2017-08-20T06:00:40.934Z,995.49
2017-08-20T06:01:38.216Z,995.46
2017-08-20T06:02:35.489Z,995.48
2017-08-20T06:03:32.774Z,995.48
2017-08-20T06:04:30.082Z,995.50
2017-08-20T06:05:27.369Z,995.50
2017-08-20T06:06:24.685Z,995.48
2017-08-20T06:07:21.988Z,995.53
2017-08-20T06:08:19.318Z,995.46
2017-08-20T06:09:16.599Z,995.57
2017-08-20T06:10:13.889Z,995.55
2017-08-20T06:11:11.207Z,995.52
2017-08-20T06:12:08.552Z,995.47
2017-08-20T06:13:05.861Z,995.47
2017-08-20T06:14:03.149Z,995.48
2017-08-20T06:15:00.431Z,995.45
2017-08-20T06:15:57.735Z,995.51
2017-08-20T06:16:55.022Z,995.42
2017-08-20T06:17:52.297Z,995.46
2017-08-20T06:18:49.576Z,995.43
2017-08-20T06:19:46.905Z,995.51
2017-08-20T06:20:44.161Z,995.46
2017-08-20T06:21:41.481Z,995.38
2017-08-20T06:22:38.756Z,995.42
2017-08-20T06:23:36.054Z,995.48
2017-08-20T06:24:33.330Z,995.47
2017-08-20T06:25:30.626Z,995.44
2017-08-20T06:26:27.909Z,995.50
2017-08-20T06:27:25.213Z,995.53
2017-08-20T06:28:22.481Z,995.53
2017-08-20T06:29:19.774Z,995.56
2017-08-20T06:30:17.064Z,995.57
2017-08-20T06:31:14.361Z,995.57
2017-08-20T06:32:11.656Z,995.61
2017-08-20T06:33:08.933Z,995.61
2017-08-20T06:34:06.200Z,995.63
2017-08-20T06:35:03.497Z,995.60
2017-08-20T06:36:00.778Z,995.62
2017-08-20T06:36:58.095Z,995.69
2017-08-20T06:37:55.354Z,995.68
2017-08-20T06:38:52.666Z,995.67
2017-08-20T06:39:49.962Z,995.68
2017-08-20T06:40:47.245Z,995.73
2017-08-20T06:41:44.539Z,995.71
2017-08-20T06:42:41.844Z,995.67
2017-08-20T06:43:39.229Z,995.64
2017-08-20T06:44:36.498Z,995.75
2017-08-20T06:45:33.758Z,995.70
2017-08-20T06:46:31.022Z,995.75
2017-08-20T06:47:28.314Z,995.70
2017-08-20T06:48:25.601Z,995.65
2017-08-20T06:49:22.886Z,995.74
2017-08-20T06:50:20.181Z,995.73
2017-08-20T06:51:17.438Z,995.77
2017-08-20T06:52:14.802Z,995.79
2017-08-20T06:53:12.062Z,995.78
2017-08-20T06:54:09.515Z,995.81
2017-08-20T06:55:06.920Z,995.88
2017-08-20T06:56:04.227Z,995.87
2017-08-20T06:57:01.602Z,995.85
2017-08-20T06:57:58.914Z,995.84
2017-08-20T06:58:56.205Z,995.89
2017-08-20T06:59:53.698Z,995.85
2017-08-20T07:00:50.989Z,995.91
2017-08-20T07:01:48.332Z,995.87
2017-08-20T07:02:45.861Z,995.82
2017-08-20T07:03:43.210Z,995.87
2017-08-20T07:04:40.498Z,995.85
2017-08-20T07:05:37.797Z,995.84
2017-08-20T07:06:35.146Z,995.82
2017-08-20T07:07:32.538Z,995.86
2017-08-20T07:08:29.912Z,995.84
2017-08-20T07:09:27.226Z,995.84
2017-08-20T07:10:24.476Z,995.87
2017-08-20T07:11:21.895Z,995.91
2017-08-20T07:12:19.182Z,995.90
2017-08-20T07:13:16.723Z,995.95
2017-08-20T07:14:14.062Z,995.86
2017-08-20T07:15:11.338Z,995.89
2017-08-20T07:16:08.740Z,995.91
2017-08-20T07:17:06.034Z,995.88
2017-08-20T07:18:03.353Z,995.94
2017-08-20T07:19:00.694Z,995.91
2017-08-20T07:19:57.987Z,995.92
2017-08-20T07:20:55.309Z,995.91
2017-08-20T07:21:52.577Z,995.97
2017-08-20T07:22:49.871Z,995.97
2017-08-20T07:23:47.181Z,995.91
2017-08-20T07:24:44.620Z,995.86
2017-08-20T07:25:41.890Z,995.86
2017-08-20T07:26:39.226Z,995.92
2017-08-20T07:27:36.499Z,995.96
2017-08-20T07:28:33.878Z,996.07
2017-08-20T07:29:31.297Z,996.11
2017-08-20T07:30:28.678Z,996.12
2017-08-20T07:31:26.014Z,996.07
2017-08-20T07:32:23.328Z,996.11
2017-08-20T07:33:20.601Z,996.11
2017-08-20T07:34:17.889Z,996.16
2017-08-20T07:35:15.161Z,996.11
2017-08-20T07:36:12.445Z,996.17
2017-08-20T07:37:09.734Z,996.20
2017-08-20T07:38:07.314Z,996.21
2017-08-20T07:39:04.706Z,996.19
2017-08-20T07:40:02.046Z,996.13
2017-08-20T07:40:59.417Z,996.23
2017-08-20T07:41:56.695Z,996.21
2017-08-20T07:42:54.026Z,996.15
2017-08-20T07:43:51.686Z,996.19
2017-08-20T07:44:48.958Z,996.19
2017-08-20T07:45:46.229Z,996.19
2017-08-20T07:46:43.552Z,996.16
2017-08-20T07:47:40.867Z,996.24
2017-08-20T07:48:38.215Z,996.25
2017-08-20T07:49:35.550Z,996.25
2017-08-20T07:50:32.821Z,996.23
2017-08-20T07:51:30.153Z,996.30
2017-08-20T07:52:27.433Z,996.35
2017-08-20T07:53:24.715Z,996.33
2017-08-20T07:54:22.033Z,996.29
2017-08-20T07:55:19.330Z,996.36
2017-08-20T07:56:16.597Z,996.30
2017-08-20T07:57:13.919Z,996.36
2017-08-20T07:58:11.204Z,996.41
2017-08-20T07:59:08.510Z,996.38
2017-08-20T08:00:05.778Z,996.41
2017-08-20T08:01:03.072Z,996.44
2017-08-20T08:02:00.325Z,996.42
2017-08-20T08:02:57.609Z,996.41
2017-08-20T08:03:54.930Z,996.42
2017-08-20T08:04:52.207Z,996.47
2017-08-20T08:05:49.461Z,996.49
2017-08-20T08:06:46.740Z,996.42
2017-08-20T08:07:44.009Z,996.40
2017-08-20T08:08:41.310Z,996.37
2017-08-20T08:09:38.616Z,996.42
2017-08-20T08:10:35.928Z,996.41
2017-08-20T08:11:33.210Z,996.41
2017-08-20T08:12:30.520Z,996.43
2017-08-20T08:13:27.792Z,996.41
2017-08-20T08:14:25.105Z,996.40
2017-08-20T08:15:22.388Z,996.41
2017-08-20T08:16:19.685Z,996.51
2017-08-20T08:17:16.956Z,996.41
2017-08-20T08:18:14.475Z,996.37
2017-08-20T08:19:11.763Z,996.44
2017-08-20T08:20:09.051Z,996.41
2017-08-20T08:21:06.325Z,996.47
2017-08-20T08:22:03.614Z,996.42
2017-08-20T08:23:00.997Z,996.38
2017-08-20T08:23:59.554Z,996.40
2017-08-20T08:24:56.832Z,996.44
2017-08-20T08:25:54.162Z,996.48
2017-08-20T08:26:51.461Z,996.45
2017-08-20T08:27:48.737Z,996.47
2017-08-20T08:28:45.999Z,996.45
2017-08-20T08:29:43.314Z,996.41
2017-08-20T08:30:40.617Z,996.50
2017-08-20T08:31:37.942Z,996.46
2017-08-20T08:32:35.213Z,996.43
2017-08-20T08:33:32.563Z,996.42
2017-08-20T08:34:29.877Z,996.39
2017-08-20T08:35:27.227Z,996.39
2017-08-20T08:36:24.574Z,996.36
2017-08-20T08:37:22.025Z,996.37
2017-08-20T08:38:19.384Z,996.40
2017-08-20T08:39:16.987Z,996.41
2017-08-20T08:40:14.666Z,996.38
2017-08-20T08:41:14.163Z,996.41
2017-08-20T08:42:11.558Z,996.38
2017-08-20T08:43:08.878Z,996.39
2017-08-20T08:44:06.159Z,996.46
2017-08-20T08:45:03.477Z,996.40
2017-08-20T08:46:00.925Z,996.38
2017-08-20T08:46:58.702Z,996.36
2017-08-20T08:47:56.066Z,996.37
2017-08-20T08:48:53.601Z,996.30
2017-08-20T08:49:50.953Z,996.35
2017-08-20T08:50:48.531Z,996.27
2017-08-20T08:51:46.302Z,996.25
2017-08-20T08:52:43.685Z,996.23
2017-08-20T08:53:40.968Z,996.22
2017-08-20T08:54:38.231Z,996.23
2017-08-20T08:55:35.609Z,996.25
2017-08-20T08:56:33.002Z,996.29
2017-08-20T08:57:30.467Z,996.22
2017-08-20T08:58:27.798Z,996.26
2017-08-20T08:59:25.085Z,996.18
2017-08-20T09:00:22.386Z,996.29
2017-08-20T09:01:19.676Z,996.21
2017-08-20T09:02:16.970Z,996.23
2017-08-20T09:03:14.234Z,996.25
2017-08-20T09:04:11.533Z,996.23
2017-08-20T09:05:08.830Z,996.22
2017-08-20T09:06:06.133Z,996.20
2017-08-20T09:07:03.409Z,996.12
2017-08-20T09:08:00.720Z,996.22
2017-08-20T09:08:58.010Z,996.24
2017-08-20T09:09:55.310Z,996.26
2017-08-20T09:10:52.616Z,996.17
2017-08-20T09:11:49.910Z,996.25
2017-08-20T09:12:48.199Z,996.22
2017-08-20T09:13:46.214Z,996.16
2017-08-20T09:14:43.812Z,996.22
2017-08-20T09:15:41.276Z,996.28
2017-08-20T09:16:38.756Z,996.27
2017-08-20T09:17:36.136Z,996.24
2017-08-20T09:18:33.522Z,996.25
2017-08-20T09:19:30.936Z,996.24
2017-08-20T09:20:28.225Z,996.20
2017-08-20T09:21:25.664Z,996.23
2017-08-20T09:22:23.268Z,996.24
2017-08-20T09:23:20.627Z,996.22
2017-08-20T09:24:17.916Z,996.16
2017-08-20T09:25:15.222Z,996.19
2017-08-20T09:26:12.582Z,996.20
2017-08-20T09:27:09.967Z,996.17
2017-08-20T09:28:07.337Z,996.14
2017-08-20T09:29:04.741Z,996.20
2017-08-20T09:30:02.081Z,996.27
2017-08-20T09:30:59.412Z,996.28
2017-08-20T09:31:56.731Z,996.25
2017-08-20T09:32:54.081Z,996.23
2017-08-20T09:33:51.813Z,996.23
2017-08-20T09:34:49.120Z,996.21
2017-08-20T09:35:46.381Z,996.20
2017-08-20T09:36:44.150Z,996.19
2017-08-20T09:37:41.444Z,996.21
2017-08-20T09:38:38.777Z,996.26
2017-08-20T09:39:36.050Z,996.28
2017-08-20T09:40:33.614Z,996.22
2017-08-20T09:41:30.926Z,996.24
2017-08-20T09:42:28.225Z,996.23
2017-08-20T09:43:25.513Z,996.35
2017-08-20T09:44:23.257Z,996.33
2017-08-20T09:45:20.530Z,996.30
2017-08-20T09:46:17.837Z,996.24
2017-08-20T09:47:15.138Z,996.32
2017-08-20T09:48:12.438Z,996.36
2017-08-20T09:49:09.726Z,996.38
2017-08-20T09:50:07.033Z,996.40
2017-08-20T09:51:04.322Z,996.41
2017-08-20T09:52:01.633Z,996.32
2017-08-20T09:52:58.922Z,996.26
2017-08-20T09:53:56.236Z,996.35
2017-08-20T09:54:53.506Z,996.30
2017-08-20T09:55:50.789Z,996.34
2017-08-20T09:56:48.137Z,996.27
2017-08-20T09:57:45.450Z,996.22
2017-08-20T09:58:42.760Z,996.29
2017-08-20T09:59:40.053Z,996.22
2017-08-20T10:00:37.339Z,996.23
2017-08-20T10:01:34.637Z,996.25
2017-08-20T10:02:32.054Z,996.26
2017-08-20T10:03:29.349Z,996.23
2017-08-20T10:04:26.659Z,996.22
2017-08-20T10:05:24.017Z,996.19
2017-08-20T10:06:21.280Z,996.20
2017-08-20T10:07:18.583Z,996.23
2017-08-20T10:08:15.868Z,996.13
2017-08-20T10:09:13.174Z,996.15
2017-08-20T10:10:10.473Z,996.16
2017-08-20T10:11:07.781Z,996.18
2017-08-20T10:12:05.087Z,996.05
2017-08-20T10:13:02.370Z,996.10
2017-08-20T10:13:59.659Z,996.04
2017-08-20T10:14:56.972Z,996.17
2017-08-20T10:15:54.250Z,996.12
2017-08-20T10:16:51.549Z,996.16
2017-08-20T10:17:48.864Z,996.19
2017-08-20T10:18:46.151Z,996.17
2017-08-20T10:19:43.425Z,996.15
2017-08-20T10:20:40.726Z,996.12
2017-08-20T10:21:37.993Z,996.11
2017-08-20T10:22:35.322Z,996.12
2017-08-20T10:23:32.606Z,996.09
2017-08-20T10:24:29.909Z,996.14
2017-08-20T10:25:27.186Z,996.09
2017-08-20T10:26:24.469Z,996.06
2017-08-20T10:27:21.738Z,996.06
2017-08-20T10:28:19.053Z,996.10
2017-08-20T10:29:16.327Z,996.16
2017-08-20T10:30:13.629Z,996.05
2017-08-20T10:31:11.386Z,996.05
2017-08-20T10:32:08.690Z,996.03
2017-08-20T10:33:05.994Z,996.07
2017-08-20T10:34:03.287Z,996.00
2017-08-20T10:35:00.581Z,996.05
2017-08-20T10:35:57.874Z,995.98
2017-08-20T10:36:55.161Z,995.94
2017-08-20T10:37:52.893Z,995.90
2017-08-20T10:38:50.216Z,996.04
2017-08-20T10:39:47.979Z,996.02
2017-08-20T10:40:45.437Z,996.04
2017-08-20T10:41:42.851Z,996.15
2017-08-20T10:42:40.189Z,996.04
2017-08-20T10:43:37.630Z,996.17
2017-08-20T10:44:34.906Z,996.10
2017-08-20T10:45:32.213Z,996.17
2017-08-20T10:46:29.522Z,996.05
2017-08-20T10:47:26.846Z,996.22
2017-08-20T10:48:24.165Z,996.18
2017-08-20T10:49:21.452Z,996.15
2017-08-20T10:50:18.745Z,996.15
2017-08-20T10:51:16.133Z,996.15
2017-08-20T10:52:13.454Z,996.16
2017-08-20T10:53:10.825Z,996.14
2017-08-20T10:54:08.126Z,996.16
2017-08-20T10:55:05.410Z,996.16
2017-08-20T10:56:02.779Z,996.13
2017-08-20T10:57:00.102Z,996.09
2017-08-20T10:57:58.161Z,996.10
2017-08-20T10:58:57.071Z,996.08
2017-08-20T10:59:55.093Z,996.05
2017-08-20T11:00:53.031Z,996.00
2017-08-20T11:01:50.322Z,996.03
2017-08-20T11:02:47.634Z,995.92
2017-08-20T11:03:44.977Z,996.06
2017-08-20T11:04:42.686Z,996.04
2017-08-20T11:05:39.989Z,996.04
2017-08-20T11:06:37.296Z,996.02
2017-08-20T11:07:34.601Z,996.07
2017-08-20T11:08:31.893Z,996.07
2017-08-20T11:09:29.191Z,996.15
2017-08-20T11:10:26.510Z,996.15
2017-08-20T11:11:23.797Z,996.11
2017-08-20T11:12:21.095Z,996.14
2017-08-20T11:13:18.389Z,996.11
2017-08-20T11:14:15.709Z,996.07
2017-08-20T11:15:12.986Z,996.01
2017-08-20T11:16:10.281Z,996.07
2017-08-20T11:17:07.578Z,996.03
2017-08-20T11:18:04.882Z,996.10
2017-08-20T11:19:02.185Z,996.07
2017-08-20T11:19:59.492Z,995.99
2017-08-20T11:20:56.797Z,996.09
2017-08-20T11:21:54.091Z,996.07
2017-08-20T11:22:51.369Z,996.11
2017-08-20T11:23:48.686Z,996.09
2017-08-20T11:24:45.985Z,996.19
2017-08-20T11:25:43.322Z,996.09
2017-08-20T11:26:40.605Z,996.15
2017-08-20T11:27:37.962Z,996.10
2017-08-20T11:28:35.246Z,996.12
2017-08-20T11:29:32.554Z,996.09
2017-08-20T11:30:29.842Z,996.13
2017-08-20T11:31:27.133Z,996.10
2017-08-20T11:32:24.422Z,996.16
2017-08-20T11:33:21.721Z,996.05
2017-08-20T11:34:19.047Z,996.09
2017-08-20T11:35:16.344Z,996.03
2017-08-20T11:36:13.698Z,996.01
2017-08-20T11:37:10.985Z,996.02
2017-08-20T11:38:08.350Z,995.99
2017-08-20T11:39:05.650Z,996.14
2017-08-20T11:40:02.966Z,996.01
2017-08-20T11:41:00.282Z,995.96
2017-08-20T11:41:57.635Z,996.04
2017-08-20T11:42:55.003Z,996.00
2017-08-20T11:43:52.265Z,996.01
2017-08-20T11:44:49.576Z,996.04
2017-08-20T11:45:46.846Z,996.02
2017-08-20T11:46:44.153Z,996.03
2017-08-20T11:47:41.433Z,996.07
2017-08-20T11:48:38.877Z,996.04
2017-08-20T11:49:36.437Z,996.03
2017-08-20T11:50:33.730Z,996.03
2017-08-20T11:51:31.102Z,995.95
2017-08-20T11:52:28.405Z,996.04
2017-08-20T11:53:25.805Z,996.03
2017-08-20T11:54:23.106Z,996.02
2017-08-20T11:55:20.490Z,996.05